createdAt,value
2023-05-11T00:01:39.716Z,10.03
2023-05-11T00:04:06.765Z,10.03
2023-05-11T00:06:33.635Z,10.03
2023-05-11T00:09:00.880Z,10.02
2023-05-11T00:11:27.783Z,10.00
2023-05-11T00:13:54.737Z,9.99
2023-05-11T00:16:21.929Z,9.99
2023-05-11T00:18:49.334Z,9.99
2023-05-11T00:21:16.289Z,9.99
2023-05-11T00:23:43.437Z,10.00
2023-05-11T00:26:10.330Z,10.00
2023-05-11T00:28:37.718Z,9.99
2023-05-11T00:31:04.891Z,9.98
2023-05-11T00:33:31.768Z,9.97
2023-05-11T00:35:58.502Z,9.95
2023-05-11T00:38:25.613Z,9.92
2023-05-11T00:40:52.892Z,9.89
2023-05-11T00:43:19.800Z,9.87
2023-05-11T00:45:48.583Z,9.84
2023-05-11T00:48:15.521Z,9.80
2023-05-11T00:50:42.494Z,9.76
2023-05-11T00:53:09.928Z,9.73
2023-05-11T00:55:37.053Z,9.70
2023-05-11T00:58:05.680Z,9.66
2023-05-11T01:00:32.899Z,9.63
2023-05-11T01:03:01.250Z,9.61
2023-05-11T01:05:36.322Z,9.59
2023-05-11T01:08:13.542Z,9.57
2023-05-11T01:10:48.308Z,9.57
2023-05-11T01:13:24.435Z,9.56
2023-05-11T01:15:54.099Z,9.55
2023-05-11T01:18:31.658Z,9.53
2023-05-11T01:21:04.238Z,9.50
2023-05-11T01:24:10.309Z,9.49
2023-05-11T01:26:57.454Z,9.46
2023-05-11T01:29:43.597Z,9.45
2023-05-11T01:32:16.635Z,9.44
2023-05-11T01:34:44.536Z,9.42
2023-05-11T01:37:16.356Z,9.41
2023-05-11T01:39:49.986Z,9.39
2023-05-11T01:42:19.706Z,9.39
2023-05-11T01:44:48.362Z,9.37
2023-05-11T01:47:17.339Z,9.37
2023-05-11T01:49:47.563Z,9.37
2023-05-11T01:52:16.167Z,9.37
2023-05-11T01:54:45.414Z,9.36
2023-05-11T01:57:15.216Z,9.36
2023-05-11T01:59:42.433Z,9.35
2023-05-11T02:02:11.855Z,9.35
2023-05-11T02:04:41.445Z,9.34
2023-05-11T02:07:12.199Z,9.32
2023-05-11T02:09:40.471Z,9.32
2023-05-11T02:12:09.433Z,9.30
2023-05-11T02:14:39.359Z,9.30
2023-05-11T02:17:07.526Z,9.30
2023-05-11T02:19:35.242Z,9.28
2023-05-11T02:22:03.285Z,9.27
2023-05-11T02:24:31.388Z,9.26
2023-05-11T02:26:59.205Z,9.24
2023-05-11T02:29:26.498Z,9.23
2023-05-11T02:32:03.839Z,9.21
2023-05-11T02:34:39.975Z,9.21
2023-05-11T02:37:11.977Z,9.19
2023-05-11T02:39:40.080Z,9.17
2023-05-11T02:42:13.758Z,9.16
2023-05-11T02:44:43.412Z,9.15
2023-05-11T02:47:14.056Z,9.14
2023-05-11T02:49:42.190Z,9.13
2023-05-11T02:52:11.505Z,9.12
2023-05-11T02:54:43.902Z,9.10
2023-05-11T02:57:11.214Z,9.09
2023-05-11T02:59:38.614Z,9.08
2023-05-11T03:02:06.059Z,9.08
2023-05-11T03:04:33.036Z,9.07
2023-05-11T03:07:00.211Z,9.07
2023-05-11T03:09:27.474Z,9.06
2023-05-11T03:11:54.947Z,9.03
2023-05-11T03:14:22.755Z,9.00
2023-05-11T03:16:51.267Z,8.99
2023-05-11T03:19:19.335Z,8.98
2023-05-11T03:21:47.740Z,8.95
2023-05-11T03:24:15.460Z,8.94
2023-05-11T03:26:44.902Z,8.91
2023-05-11T03:29:13.290Z,8.89
2023-05-11T03:31:40.880Z,8.85
2023-05-11T03:34:08.159Z,8.84
2023-05-11T03:36:39.613Z,8.83
2023-05-11T03:39:16.001Z,8.83
2023-05-11T03:41:45.816Z,8.81
2023-05-11T03:44:15.296Z,8.79
2023-05-11T03:46:45.926Z,8.78
2023-05-11T03:49:15.044Z,8.78
2023-05-11T03:51:42.950Z,8.78
2023-05-11T03:54:11.191Z,8.79
2023-05-11T03:56:41.228Z,8.81
2023-05-11T03:59:08.740Z,8.83
2023-05-11T04:01:36.424Z,8.85
2023-05-11T04:04:03.664Z,8.87
2023-05-11T04:06:31.523Z,8.88
2023-05-11T04:09:14.922Z,8.88
2023-05-11T04:11:42.280Z,8.86
2023-05-11T04:14:09.108Z,8.88
2023-05-11T04:16:36.628Z,8.89
2023-05-11T04:19:03.519Z,8.89
2023-05-11T04:21:30.733Z,8.91
2023-05-11T04:23:57.956Z,8.93
2023-05-11T04:26:24.902Z,8.95
2023-05-11T04:28:52.377Z,8.98
2023-05-11T04:31:21.052Z,9.04
2023-05-11T04:33:48.513Z,9.13
2023-05-11T04:36:16.268Z,9.21
2023-05-11T04:38:44.046Z,9.27
2023-05-11T04:41:11.489Z,9.35
2023-05-11T04:43:39.868Z,9.47
2023-05-11T04:46:08.862Z,9.52
2023-05-11T04:48:36.000Z,9.60
2023-05-11T04:51:07.090Z,9.67
2023-05-11T04:53:39.437Z,9.75
2023-05-11T04:56:07.036Z,9.83
2023-05-11T04:58:36.325Z,9.92
2023-05-11T05:01:03.527Z,10.03
2023-05-11T05:03:30.906Z,10.18
2023-05-11T05:05:57.849Z,10.35
2023-05-11T05:08:25.207Z,10.62
2023-05-11T05:10:52.470Z,11.27
2023-05-11T05:13:19.326Z,12.96
2023-05-11T05:15:46.774Z,15.10
2023-05-11T05:18:13.718Z,17.19
2023-05-11T05:20:41.694Z,19.05
2023-05-11T05:23:09.453Z,20.73
2023-05-11T05:25:36.481Z,22.18
2023-05-11T05:28:03.536Z,23.34
2023-05-11T05:30:30.872Z,24.09
2023-05-11T05:32:57.752Z,25.14
2023-05-11T05:35:25.500Z,26.46
2023-05-11T05:37:53.564Z,27.13
2023-05-11T05:40:20.970Z,27.71
2023-05-11T05:42:51.635Z,27.81
2023-05-11T05:45:21.785Z,27.70
2023-05-11T05:47:51.871Z,28.06
2023-05-11T05:50:19.641Z,28.75
2023-05-11T05:52:47.013Z,29.40
2023-05-11T05:55:14.275Z,29.95
2023-05-11T05:57:42.246Z,30.20
2023-05-11T06:00:12.777Z,30.85
2023-05-11T06:02:42.616Z,31.28
2023-05-11T06:05:17.230Z,31.75
2023-05-11T06:07:49.292Z,32.56
2023-05-11T06:10:22.257Z,32.95
2023-05-11T06:12:49.337Z,32.71
2023-05-11T06:15:17.389Z,32.75
2023-05-11T06:17:47.578Z,32.86
2023-05-11T06:20:15.373Z,32.83
2023-05-11T06:22:42.408Z,32.68
2023-05-11T06:25:11.163Z,32.55
2023-05-11T06:27:38.794Z,32.53
2023-05-11T06:30:06.897Z,32.35
2023-05-11T06:32:35.745Z,32.56
2023-05-11T06:35:03.076Z,32.65
2023-05-11T06:37:32.994Z,32.57
2023-05-11T06:40:00.862Z,32.27
2023-05-11T06:42:27.912Z,32.02
2023-05-11T06:45:05.193Z,31.87
2023-05-11T06:47:33.698Z,32.00
2023-05-11T06:50:01.140Z,31.76
2023-05-11T06:52:28.492Z,31.28
2023-05-11T06:54:56.374Z,31.38
2023-05-11T06:57:23.212Z,31.46
2023-05-11T06:59:50.966Z,31.28
2023-05-11T07:02:18.081Z,30.84
2023-05-11T07:04:45.182Z,30.69
2023-05-11T07:07:12.581Z,30.75
2023-05-11T07:09:41.376Z,30.60
2023-05-11T07:12:10.274Z,30.59
2023-05-11T07:14:37.451Z,30.26
2023-05-11T07:17:04.740Z,30.06
2023-05-11T07:19:32.098Z,29.87
2023-05-11T07:21:59.229Z,29.88
2023-05-11T07:24:26.468Z,30.07
2023-05-11T07:26:55.684Z,30.14
2023-05-11T07:29:22.806Z,30.67
2023-05-11T07:31:49.828Z,31.47
2023-05-11T07:34:16.805Z,31.97
2023-05-11T07:36:43.957Z,31.51
2023-05-11T07:39:11.474Z,31.19
2023-05-11T07:41:38.365Z,30.97
2023-05-11T07:44:06.125Z,30.44
2023-05-11T07:46:33.201Z,30.25
2023-05-11T07:49:14.601Z,29.80
2023-05-11T07:51:46.206Z,29.38
2023-05-11T07:54:13.164Z,28.87
2023-05-11T07:56:40.135Z,28.80
2023-05-11T07:59:07.671Z,28.57
2023-05-11T08:01:34.807Z,28.14
2023-05-11T08:04:01.752Z,28.26
2023-05-11T08:06:29.417Z,28.38
2023-05-11T08:08:56.309Z,28.13
2023-05-11T08:11:24.244Z,27.96
2023-05-11T08:13:52.044Z,27.82
2023-05-11T08:16:19.103Z,27.49
2023-05-11T08:18:46.129Z,27.12
2023-05-11T08:21:13.055Z,26.85
2023-05-11T08:23:39.989Z,26.78
2023-05-11T08:26:07.753Z,26.61
2023-05-11T08:28:34.999Z,26.23
2023-05-11T08:31:02.204Z,25.92
2023-05-11T08:36:01.064Z,26.30
2023-05-11T08:38:28.017Z,26.72
2023-05-11T08:40:55.668Z,26.78
2023-05-11T08:43:24.056Z,26.42
2023-05-11T08:45:57.081Z,26.12
2023-05-11T08:48:25.028Z,26.24
2023-05-11T08:50:52.244Z,26.34
2023-05-11T08:53:19.256Z,26.43
2023-05-11T08:55:47.894Z,26.43
2023-05-11T08:58:19.556Z,26.22
2023-05-11T09:00:47.584Z,25.79
2023-05-11T09:03:14.620Z,25.51
2023-05-11T09:05:43.556Z,25.33
2023-05-11T09:08:12.136Z,24.80
2023-05-11T09:10:40.208Z,24.47
2023-05-11T09:13:07.256Z,24.43
2023-05-11T09:15:37.250Z,24.39
2023-05-11T09:18:05.137Z,24.22
2023-05-11T09:20:33.653Z,23.84
2023-05-11T09:23:01.351Z,23.77
2023-05-11T09:25:32.429Z,23.55
2023-05-11T09:28:01.097Z,23.41
2023-05-11T09:30:28.483Z,23.25
2023-05-11T09:32:57.049Z,23.30
2023-05-11T09:35:26.171Z,23.38
2023-05-11T09:38:10.404Z,23.17
2023-05-11T09:40:38.700Z,23.04
2023-05-11T09:43:16.597Z,22.90
2023-05-11T09:45:45.586Z,22.77
2023-05-11T09:48:25.649Z,22.84
2023-05-11T09:50:59.412Z,23.08
2023-05-11T09:53:37.404Z,23.20
2023-05-11T09:56:04.984Z,23.48
2023-05-11T09:58:48.214Z,23.81
2023-05-11T10:01:16.468Z,24.01
2023-05-11T10:03:58.169Z,23.98
2023-05-11T10:06:44.166Z,24.02
2023-05-11T10:09:14.617Z,23.91
2023-05-11T10:11:47.302Z,23.67
2023-05-11T10:14:16.244Z,23.49
2023-05-11T10:16:44.913Z,23.32
2023-05-11T10:19:14.141Z,23.06
2023-05-11T10:21:42.737Z,22.84
2023-05-11T10:24:13.909Z,22.66
2023-05-11T10:26:41.581Z,22.56
2023-05-11T10:29:10.662Z,22.72
2023-05-11T10:31:38.405Z,22.80
2023-05-11T10:34:07.009Z,22.64
2023-05-11T10:36:35.090Z,22.49
2023-05-11T10:39:02.024Z,22.44
2023-05-11T10:41:40.859Z,22.34
2023-05-11T10:44:26.120Z,22.15
2023-05-11T10:47:07.915Z,21.97
2023-05-11T10:50:04.658Z,21.58
2023-05-11T10:52:49.670Z,21.41
2023-05-11T10:55:28.742Z,21.38
2023-05-11T10:58:08.429Z,21.06
2023-05-11T11:01:06.644Z,20.66
2023-05-11T11:03:33.836Z,20.43
2023-05-11T11:06:01.659Z,20.12
2023-05-11T11:08:29.833Z,19.84
2023-05-11T11:10:56.752Z,19.73
2023-05-11T11:13:25.223Z,19.74
2023-05-11T11:16:14.510Z,19.65
2023-05-11T11:18:43.714Z,19.52
2023-05-11T11:21:15.637Z,19.55
2023-05-11T11:23:49.253Z,19.50
2023-05-11T11:26:18.970Z,19.56
2023-05-11T11:29:14.622Z,19.53
2023-05-11T11:31:42.624Z,19.40
2023-05-11T11:34:39.085Z,19.34
2023-05-11T11:37:10.154Z,19.31
2023-05-11T11:40:13.124Z,19.38
2023-05-11T11:42:42.841Z,19.28
2023-05-11T11:45:31.194Z,19.20
2023-05-11T11:48:21.564Z,19.14
2023-05-11T11:50:50.142Z,19.18
2023-05-11T11:54:09.757Z,19.18
2023-05-11T11:56:48.760Z,19.19
2023-05-11T11:59:16.471Z,19.27
2023-05-11T12:01:45.644Z,19.30
2023-05-11T12:04:40.924Z,19.39
2023-05-11T12:07:13.416Z,19.41
2023-05-11T12:09:42.039Z,19.34
2023-05-11T12:12:12.103Z,19.46
2023-05-11T12:14:39.708Z,19.49
2023-05-11T12:17:18.347Z,19.49
2023-05-11T12:19:46.694Z,19.51
2023-05-11T12:22:16.481Z,19.59
2023-05-11T12:24:44.134Z,19.65
2023-05-11T12:27:11.688Z,19.60
2023-05-11T12:29:39.390Z,19.69
2023-05-11T12:32:12.439Z,19.68
2023-05-11T12:34:39.532Z,19.57
2023-05-11T12:37:08.910Z,19.38
2023-05-11T12:39:37.284Z,19.29
2023-05-11T12:42:04.452Z,19.34
2023-05-11T12:44:31.991Z,19.44
2023-05-11T12:46:59.104Z,19.50
2023-05-11T12:49:27.759Z,19.48
2023-05-11T12:52:08.019Z,19.45
2023-05-11T12:54:38.346Z,19.37
2023-05-11T12:57:06.131Z,19.31
2023-05-11T12:59:38.566Z,19.26
2023-05-11T13:02:18.098Z,19.25
2023-05-11T13:04:48.038Z,19.31
2023-05-11T13:07:16.822Z,19.30
2023-05-11T13:09:43.834Z,19.26
2023-05-11T13:12:21.253Z,19.21
2023-05-11T13:14:50.534Z,19.11
2023-05-11T13:17:31.232Z,19.03
2023-05-11T13:19:58.828Z,19.01
2023-05-11T13:22:25.999Z,19.05
2023-05-11T13:25:04.234Z,19.02
2023-05-11T13:27:31.017Z,19.05
2023-05-11T13:29:57.894Z,19.04
2023-05-11T13:32:25.081Z,19.08
2023-05-11T13:34:52.426Z,19.13
2023-05-11T13:37:19.380Z,19.13
2023-05-11T13:39:46.630Z,19.05
2023-05-11T13:42:13.653Z,18.97
2023-05-11T13:44:40.598Z,18.92
2023-05-11T13:47:08.764Z,18.90
2023-05-11T13:49:35.821Z,18.86
2023-05-11T13:52:02.833Z,18.87
2023-05-11T13:54:31.886Z,18.85
2023-05-11T13:56:59.620Z,18.76
2023-05-11T13:59:26.676Z,18.71
2023-05-11T14:01:54.781Z,18.64
2023-05-11T14:04:22.012Z,18.59
2023-05-11T14:06:49.352Z,18.63
2023-05-11T14:09:16.637Z,18.63
2023-05-11T14:11:44.066Z,18.55
2023-05-11T14:14:11.126Z,18.50
2023-05-11T14:16:38.560Z,18.47
2023-05-11T14:19:05.713Z,18.48
2023-05-11T14:21:33.385Z,18.52
2023-05-11T14:24:11.378Z,18.55
2023-05-11T14:26:39.972Z,18.52
2023-05-11T14:29:07.097Z,18.47
2023-05-11T14:31:35.362Z,18.41
2023-05-11T14:34:02.851Z,18.33
2023-05-11T14:36:30.259Z,18.30
2023-05-11T14:38:57.173Z,18.32
2023-05-11T14:41:24.200Z,18.29
2023-05-11T14:43:51.795Z,18.22
2023-05-11T14:46:18.962Z,18.20
2023-05-11T14:48:45.898Z,18.19
2023-05-11T14:51:13.022Z,18.18
2023-05-11T14:53:39.909Z,18.21
2023-05-11T14:56:08.132Z,18.20
2023-05-11T14:58:35.376Z,18.16
2023-05-11T15:01:02.426Z,18.15
2023-05-11T15:03:31.377Z,18.10
2023-05-11T15:05:58.774Z,18.06
2023-05-11T15:08:30.131Z,18.03
2023-05-11T15:10:57.922Z,17.96
2023-05-11T15:13:25.238Z,17.96
2023-05-11T15:15:52.303Z,17.94
2023-05-11T15:18:20.018Z,17.90
2023-05-11T15:20:47.697Z,17.86
2023-05-11T15:23:17.049Z,17.82
2023-05-11T15:25:44.640Z,17.79
2023-05-11T15:28:12.336Z,17.79
2023-05-11T15:30:41.394Z,17.76
2023-05-11T15:33:08.735Z,17.75
2023-05-11T15:35:36.883Z,17.73
2023-05-11T15:38:03.963Z,17.72
2023-05-11T15:40:30.843Z,17.73
2023-05-11T15:42:58.729Z,17.73
2023-05-11T15:45:26.383Z,17.72
2023-05-11T15:47:54.196Z,17.74
2023-05-11T15:50:22.050Z,17.75
2023-05-11T15:52:49.272Z,17.73
2023-05-11T15:55:16.147Z,17.72
2023-05-11T15:57:43.036Z,17.70
2023-05-11T16:00:15.091Z,17.70
2023-05-11T16:02:42.858Z,17.67
2023-05-11T16:05:11.356Z,17.65
2023-05-11T16:07:38.748Z,17.64
2023-05-11T16:10:06.749Z,17.63
2023-05-11T16:12:33.611Z,17.63
2023-05-11T16:15:00.549Z,17.61
2023-05-11T16:17:27.439Z,17.62
2023-05-11T16:19:59.582Z,17.63
2023-05-11T16:22:26.643Z,17.64
2023-05-11T16:24:53.435Z,17.62
2023-05-11T16:27:20.446Z,17.57
2023-05-11T16:29:47.278Z,17.52
2023-05-11T16:32:14.395Z,17.52
2023-05-11T16:34:41.565Z,17.49
2023-05-11T16:37:08.742Z,17.45
2023-05-11T16:39:35.877Z,17.45
2023-05-11T16:42:03.245Z,17.45
2023-05-11T16:44:30.795Z,17.45
2023-05-11T16:46:58.550Z,17.45
2023-05-11T16:49:25.864Z,17.44
2023-05-11T16:51:53.081Z,17.41
2023-05-11T16:54:20.103Z,17.38
2023-05-11T16:56:47.511Z,17.35
2023-05-11T16:59:14.467Z,17.33
2023-05-11T17:01:42.051Z,17.29
2023-05-11T17:04:09.046Z,17.28
2023-05-11T17:06:36.108Z,17.28
2023-05-11T17:09:02.960Z,17.24
2023-05-11T17:11:29.800Z,17.20
2023-05-11T17:13:56.736Z,17.17
2023-05-11T17:16:24.121Z,17.13
2023-05-11T17:18:51.242Z,17.11
2023-05-11T17:21:18.382Z,17.08
2023-05-11T17:23:46.003Z,17.06
2023-05-11T17:26:13.808Z,17.03
2023-05-11T17:28:41.655Z,17.01
2023-05-11T17:31:13.172Z,16.98
2023-05-11T17:33:41.012Z,16.95
2023-05-11T17:36:09.492Z,16.90
2023-05-11T17:38:39.521Z,16.87
2023-05-11T17:41:06.817Z,16.84
2023-05-11T17:43:34.160Z,16.80
2023-05-11T17:46:03.826Z,16.77
2023-05-11T17:48:30.938Z,16.73
2023-05-11T17:50:58.057Z,16.70
2023-05-11T17:53:25.188Z,16.66
2023-05-11T17:55:53.164Z,16.61
2023-05-11T17:58:20.204Z,16.57
2023-05-11T18:00:49.129Z,16.53
2023-05-11T18:03:16.840Z,16.50
2023-05-11T18:05:48.473Z,16.46
2023-05-11T18:08:16.095Z,16.42
2023-05-11T18:10:43.008Z,16.38
2023-05-11T18:13:10.146Z,16.33
2023-05-11T18:15:37.827Z,16.29
2023-05-11T18:18:04.828Z,16.25
2023-05-11T18:20:31.866Z,16.20
2023-05-11T18:22:58.894Z,16.16
2023-05-11T18:25:31.883Z,16.12
2023-05-11T18:27:59.972Z,16.08
2023-05-11T18:30:27.098Z,16.04
2023-05-11T18:32:57.501Z,16.01
2023-05-11T18:35:27.151Z,15.97
2023-05-11T18:37:56.988Z,15.94
2023-05-11T18:40:24.003Z,15.89
2023-05-11T18:42:53.945Z,15.86
2023-05-11T18:45:41.600Z,15.82
2023-05-11T18:48:09.578Z,15.78
2023-05-11T18:50:36.500Z,15.76
2023-05-11T18:53:03.386Z,15.74
2023-05-11T18:55:35.427Z,15.70
2023-05-11T18:58:08.233Z,15.67
2023-05-11T19:00:39.408Z,15.64
2023-05-11T19:03:09.764Z,15.61
2023-05-11T19:05:37.122Z,15.58
2023-05-11T19:08:07.162Z,15.56
2023-05-11T19:10:34.226Z,15.54
2023-05-11T19:13:01.345Z,15.51
2023-05-11T19:15:28.283Z,15.47
2023-05-11T19:17:55.126Z,15.42
2023-05-11T19:20:22.796Z,15.36
2023-05-11T19:22:49.929Z,15.31
2023-05-11T19:25:17.816Z,15.25
2023-05-11T19:27:45.482Z,15.21
2023-05-11T19:30:13.645Z,15.16
2023-05-11T19:32:42.343Z,15.10
2023-05-11T19:35:11.826Z,15.05
2023-05-11T19:37:38.728Z,15.01
2023-05-11T19:40:38.080Z,14.97
2023-05-11T19:42:56.471Z,14.91
2023-05-11T19:45:23.486Z,14.87
2023-05-11T19:47:50.447Z,14.83
2023-05-11T19:50:20.426Z,14.80
2023-05-11T19:52:51.178Z,14.77
2023-05-11T19:55:18.362Z,14.75
2023-05-11T19:57:45.267Z,14.72
2023-05-11T20:00:14.103Z,14.71
2023-05-11T20:02:41.511Z,14.70
2023-05-11T20:05:10.124Z,14.71
2023-05-11T20:07:37.288Z,14.72
2023-05-11T20:10:04.949Z,14.72
2023-05-11T20:12:34.214Z,14.72
2023-05-11T20:15:01.162Z,14.71
2023-05-11T20:17:28.349Z,14.69
2023-05-11T20:19:55.440Z,14.65
2023-05-11T20:22:22.996Z,14.61
2023-05-11T20:24:53.439Z,14.56
2023-05-11T20:27:23.479Z,14.51
2023-05-11T20:29:50.652Z,14.46
2023-05-11T20:32:18.599Z,14.41
2023-05-11T20:34:54.213Z,14.37
2023-05-11T20:37:41.445Z,14.30
2023-05-11T20:40:10.759Z,14.26
2023-05-11T20:42:39.516Z,14.21
2023-05-11T20:45:08.024Z,14.17
2023-05-11T20:47:35.395Z,14.12
2023-05-11T20:50:02.412Z,14.07
2023-05-11T20:52:30.282Z,14.03
2023-05-11T20:54:57.644Z,13.97
2023-05-11T20:57:24.781Z,13.90
2023-05-11T21:02:21.906Z,13.79
2023-05-11T21:04:49.817Z,13.74
2023-05-11T21:07:16.764Z,13.68
2023-05-11T21:09:44.598Z,13.63
2023-05-11T21:12:11.997Z,13.58
2023-05-11T21:14:39.182Z,13.52
2023-05-11T21:17:06.480Z,13.47
2023-05-11T21:19:33.672Z,13.43
2023-05-11T21:22:00.694Z,13.38
2023-05-11T21:24:28.007Z,13.34
2023-05-11T21:26:55.968Z,13.29
2023-05-11T21:29:23.004Z,13.25
2023-05-11T21:31:50.312Z,13.21
2023-05-11T21:34:17.462Z,13.17
2023-05-11T21:36:47.172Z,13.13
2023-05-11T21:39:14.425Z,13.09
2023-05-11T21:41:41.493Z,13.05
2023-05-11T21:44:08.872Z,13.00
2023-05-11T21:46:36.440Z,12.96
2023-05-11T21:49:03.450Z,12.92
2023-05-11T21:51:30.382Z,12.88
2023-05-11T21:53:57.541Z,12.84
2023-05-11T21:56:25.197Z,12.81
2023-05-11T21:58:52.052Z,12.77
2023-05-11T22:01:19.990Z,12.74
2023-05-11T22:03:47.042Z,12.70
2023-05-11T22:06:14.171Z,12.67
2023-05-11T22:08:41.259Z,12.64
2023-05-11T22:11:08.221Z,12.60
2023-05-11T22:13:35.356Z,12.57
2023-05-11T22:16:03.491Z,12.53
2023-05-11T22:18:30.630Z,12.50
2023-05-11T22:20:57.731Z,12.47
2023-05-11T22:23:24.743Z,12.45
2023-05-11T22:25:51.791Z,12.41
2023-05-11T22:28:30.029Z,12.38
2023-05-11T22:30:59.044Z,12.33
2023-05-11T22:33:36.419Z,12.30
2023-05-11T22:36:03.876Z,12.27
2023-05-11T22:38:32.804Z,12.23
2023-05-11T22:41:00.220Z,12.21
2023-05-11T22:43:27.480Z,12.16
2023-05-11T22:45:56.830Z,12.12
2023-05-11T22:48:35.614Z,12.08
2023-05-11T22:51:06.340Z,12.05
2023-05-11T22:53:36.077Z,12.03
2023-05-11T22:56:07.595Z,11.99
2023-05-11T22:58:36.996Z,11.96
2023-05-11T23:01:24.341Z,11.94
2023-05-11T23:03:51.827Z,11.92
2023-05-11T23:06:30.074Z,11.91
2023-05-11T23:08:57.008Z,11.90
2023-05-11T23:11:24.284Z,11.90
2023-05-11T23:13:51.165Z,11.90
2023-05-11T23:16:19.611Z,11.90
2023-05-11T23:18:46.568Z,11.90
2023-05-11T23:21:16.281Z,11.90
2023-05-11T23:23:43.735Z,11.88
2023-05-11T23:26:10.680Z,11.87
2023-05-11T23:28:37.673Z,11.85
2023-05-11T23:31:05.456Z,11.82
2023-05-11T23:33:32.942Z,11.79
2023-05-11T23:36:00.142Z,11.76
2023-05-11T23:38:36.358Z,11.74
2023-05-11T23:41:03.314Z,11.71
2023-05-11T23:43:50.653Z,11.68
2023-05-11T23:46:20.775Z,11.66
2023-05-11T23:48:48.321Z,11.63
2023-05-11T23:51:16.620Z,11.61
2023-05-11T23:53:43.836Z,11.58
2023-05-11T23:56:11.347Z,11.55
2023-05-11T23:58:45.648Z,11.52
